createdAt,value
2022-10-10T00:02:18.305Z,78.49
2022-10-10T00:04:52.984Z,78.38
2022-10-10T00:07:24.657Z,78.95
2022-10-10T00:09:56.242Z,79.15
2022-10-10T00:12:28.081Z,79.32
2022-10-10T00:14:59.777Z,79.45
2022-10-10T00:17:31.506Z,79.59
2022-10-10T00:20:03.267Z,80.40
2022-10-10T00:22:34.987Z,80.48
2022-10-10T00:25:08.397Z,80.08
2022-10-10T00:27:40.373Z,80.22
2022-10-10T00:30:13.495Z,80.23
2022-10-10T00:32:45.334Z,80.65
2022-10-10T00:35:17.076Z,80.14
2022-10-10T00:37:48.697Z,80.52
2022-10-10T00:40:20.702Z,80.21
2022-10-10T00:42:52.668Z,80.17
2022-10-10T00:45:41.083Z,80.70
2022-10-10T00:48:16.378Z,81.04
2022-10-10T00:50:53.074Z,80.89
2022-10-10T00:53:28.287Z,80.49
2022-10-10T00:56:00.961Z,80.21
2022-10-10T00:58:34.877Z,80.72
2022-10-10T01:01:05.307Z,80.64
2022-10-10T01:03:37.097Z,80.71
2022-10-10T01:06:09.401Z,80.87
2022-10-10T01:08:41.249Z,80.71
2022-10-10T01:11:28.885Z,81.19
2022-10-10T01:14:09.625Z,81.14
2022-10-10T01:16:48.242Z,81.95
2022-10-10T01:19:45.425Z,82.12
2022-10-10T01:22:28.278Z,81.17
2022-10-10T01:25:06.551Z,81.25
2022-10-10T01:27:43.680Z,81.08
2022-10-10T01:30:18.754Z,81.51
2022-10-10T01:32:55.456Z,81.75
2022-10-10T01:35:40.877Z,81.88
2022-10-10T01:38:23.422Z,82.04
2022-10-10T01:40:58.146Z,82.27
2022-10-10T01:43:31.027Z,82.13
2022-10-10T01:46:10.656Z,82.25
2022-10-10T01:48:44.047Z,82.24
2022-10-10T01:51:29.538Z,82.54
2022-10-10T01:54:29.055Z,82.83
2022-10-10T01:57:12.416Z,82.44
2022-10-10T01:59:54.798Z,82.11
2022-10-10T02:02:36.327Z,82.44
2022-10-10T02:05:15.861Z,82.17
2022-10-10T02:07:51.932Z,82.39
2022-10-10T02:10:27.918Z,83.45
2022-10-10T02:13:02.898Z,83.00
2022-10-10T02:15:40.961Z,82.73
2022-10-10T02:18:15.976Z,83.03
2022-10-10T02:20:49.508Z,82.96
2022-10-10T02:23:23.374Z,83.20
2022-10-10T02:25:57.397Z,83.46
2022-10-10T02:28:34.827Z,83.07
2022-10-10T02:31:10.109Z,82.86
2022-10-10T02:33:51.446Z,83.17
2022-10-10T02:36:25.284Z,83.07
2022-10-10T02:38:59.307Z,83.07
2022-10-10T02:41:32.417Z,83.03
2022-10-10T02:44:04.215Z,82.93
2022-10-10T02:46:36.038Z,82.68
2022-10-10T02:49:10.950Z,82.54
2022-10-10T02:51:42.921Z,82.67
2022-10-10T02:54:14.573Z,83.00
2022-10-10T02:56:46.279Z,83.19
2022-10-10T02:59:18.279Z,83.62
2022-10-10T03:01:50.347Z,83.30
2022-10-10T03:04:22.016Z,83.45
2022-10-10T03:06:54.538Z,83.47
2022-10-10T03:09:26.334Z,83.63
2022-10-10T03:11:58.009Z,83.50
2022-10-10T03:14:29.870Z,84.02
2022-10-10T03:17:01.562Z,84.06
2022-10-10T03:19:33.585Z,83.97
2022-10-10T03:22:08.013Z,84.07
2022-10-10T03:24:39.694Z,84.13
2022-10-10T03:27:11.430Z,84.23
2022-10-10T03:29:43.122Z,84.14
2022-10-10T03:32:14.695Z,84.44
2022-10-10T03:34:47.126Z,83.79
2022-10-10T03:37:18.946Z,83.70
2022-10-10T03:39:50.608Z,83.57
2022-10-10T03:42:22.207Z,83.99
2022-10-10T03:44:53.953Z,84.18
2022-10-10T03:47:25.549Z,84.19
2022-10-10T03:49:57.250Z,84.10
2022-10-10T03:52:28.996Z,83.81
2022-10-10T03:55:00.897Z,83.68
2022-10-10T03:57:33.313Z,83.35
2022-10-10T04:00:05.572Z,83.44
2022-10-10T04:02:37.304Z,83.56
2022-10-10T04:05:10.214Z,83.78
2022-10-10T04:07:42.526Z,83.67
2022-10-10T04:10:14.421Z,83.69
2022-10-10T04:12:46.114Z,83.68
2022-10-10T04:15:17.956Z,84.32
2022-10-10T04:17:49.622Z,84.45
2022-10-10T04:20:21.540Z,84.22
2022-10-10T04:22:53.771Z,84.29
2022-10-10T04:25:25.677Z,84.40
2022-10-10T04:28:01.039Z,84.48
2022-10-10T04:30:35.465Z,84.11
2022-10-10T04:33:09.296Z,83.89
2022-10-10T04:35:41.017Z,84.14
2022-10-10T04:38:12.665Z,84.41
2022-10-10T04:40:44.522Z,84.21
2022-10-10T04:43:16.199Z,84.04
2022-10-10T04:45:48.452Z,85.69
2022-10-10T04:48:20.078Z,85.82
2022-10-10T04:50:56.313Z,84.98
2022-10-10T04:53:28.725Z,84.62
2022-10-10T04:56:00.490Z,84.61
2022-10-10T04:58:32.347Z,85.21
2022-10-10T05:01:04.717Z,84.83
2022-10-10T05:03:37.342Z,84.76
2022-10-10T05:06:09.333Z,84.65
2022-10-10T05:08:41.063Z,84.76
2022-10-10T05:11:12.758Z,84.92
2022-10-10T05:13:44.899Z,84.66
2022-10-10T05:16:16.670Z,85.06
2022-10-10T05:18:49.077Z,84.91
2022-10-10T05:21:21.943Z,85.13
2022-10-10T05:23:53.824Z,85.41
2022-10-10T05:26:25.630Z,85.44
2022-10-10T05:28:57.386Z,84.98
2022-10-10T05:31:29.146Z,84.75
2022-10-10T05:34:00.930Z,84.20
2022-10-10T05:36:32.727Z,84.60
2022-10-10T05:39:04.564Z,84.87
2022-10-10T05:41:36.589Z,84.68
2022-10-10T05:44:08.354Z,84.38
2022-10-10T05:46:40.305Z,84.38
2022-10-10T05:49:12.473Z,84.60
2022-10-10T05:51:46.562Z,84.20
2022-10-10T05:54:18.334Z,84.52
2022-10-10T05:56:50.072Z,84.45
2022-10-10T05:59:22.189Z,84.90
2022-10-10T06:01:54.277Z,84.84
2022-10-10T06:04:27.572Z,84.49
2022-10-10T06:06:59.305Z,84.09
2022-10-10T06:09:31.669Z,84.10
2022-10-10T06:12:03.559Z,84.26
2022-10-10T06:14:35.470Z,84.45
2022-10-10T06:17:07.521Z,83.97
2022-10-10T06:19:39.202Z,83.64
2022-10-10T06:22:10.984Z,83.34
2022-10-10T06:24:42.648Z,83.24
2022-10-10T06:27:14.901Z,83.42
2022-10-10T06:29:46.662Z,83.12
2022-10-10T06:32:18.362Z,82.89
2022-10-10T06:34:50.126Z,83.03
2022-10-10T06:37:21.882Z,82.56
2022-10-10T06:39:53.618Z,81.92
2022-10-10T06:42:25.389Z,81.47
2022-10-10T06:45:02.341Z,80.93
2022-10-10T06:47:34.642Z,81.37
2022-10-10T06:50:07.027Z,80.95
2022-10-10T06:52:41.275Z,80.60
2022-10-10T06:55:13.269Z,80.23
2022-10-10T06:57:45.026Z,80.14
2022-10-10T07:00:17.802Z,80.19
2022-10-10T07:02:48.213Z,79.96
2022-10-10T07:05:20.995Z,79.56
2022-10-10T07:07:54.330Z,79.32
2022-10-10T07:10:26.309Z,78.86
2022-10-10T07:12:58.102Z,79.11
2022-10-10T07:15:29.872Z,78.91
2022-10-10T07:18:01.980Z,78.99
2022-10-10T07:20:34.303Z,78.75
2022-10-10T07:23:06.667Z,79.09
2022-10-10T07:25:43.049Z,78.72
2022-10-10T07:28:15.304Z,78.25
2022-10-10T07:30:49.231Z,77.97
2022-10-10T07:33:21.438Z,78.02
2022-10-10T07:35:56.396Z,77.55
2022-10-10T07:38:28.170Z,77.58
2022-10-10T07:41:00.091Z,77.47
2022-10-10T07:43:31.889Z,76.93
2022-10-10T07:46:07.046Z,76.84
2022-10-10T07:48:41.533Z,76.74
2022-10-10T07:51:14.744Z,76.96
2022-10-10T07:53:46.664Z,76.70
2022-10-10T07:56:19.454Z,76.56
2022-10-10T07:58:49.681Z,76.22
2022-10-10T08:01:21.908Z,76.69
2022-10-10T08:03:53.727Z,76.57
2022-10-10T08:06:25.526Z,76.25
2022-10-10T08:08:57.205Z,75.90
2022-10-10T08:11:28.858Z,75.80
2022-10-10T08:14:00.831Z,75.36
2022-10-10T08:16:32.781Z,75.61
2022-10-10T08:19:04.739Z,75.84
2022-10-10T08:21:36.694Z,75.84
2022-10-10T08:24:09.491Z,75.61
2022-10-10T08:26:39.704Z,75.47
2022-10-10T08:29:11.430Z,75.70
2022-10-10T08:31:43.306Z,75.66
2022-10-10T08:34:15.551Z,75.14
2022-10-10T08:36:47.442Z,74.73
2022-10-10T08:39:20.023Z,74.78
2022-10-10T08:41:53.932Z,74.73
2022-10-10T08:44:30.756Z,74.41
2022-10-10T08:47:06.660Z,74.23
2022-10-10T08:49:44.103Z,73.94
2022-10-10T08:52:29.004Z,73.82
2022-10-10T08:55:03.524Z,73.63
2022-10-10T08:57:43.667Z,73.44
2022-10-10T09:00:20.480Z,73.12
2022-10-10T09:02:56.958Z,73.53
2022-10-10T09:05:42.253Z,73.15
2022-10-10T09:08:34.490Z,72.43
2022-10-10T09:11:14.243Z,72.07
2022-10-10T09:13:59.346Z,72.11
2022-10-10T09:16:39.125Z,71.91
2022-10-10T09:19:24.570Z,71.58
2022-10-10T09:22:02.759Z,70.94
2022-10-10T09:24:42.608Z,70.70
2022-10-10T09:27:18.161Z,69.68
2022-10-10T09:29:54.816Z,69.68
2022-10-10T09:32:30.694Z,69.07
2022-10-10T09:35:15.504Z,68.71
2022-10-10T09:37:49.866Z,68.09
2022-10-10T09:40:30.317Z,67.95
2022-10-10T09:43:10.962Z,66.90
2022-10-10T09:45:50.057Z,66.82
2022-10-10T09:48:23.006Z,65.81
2022-10-10T09:50:54.884Z,65.17
2022-10-10T09:53:27.274Z,64.69
2022-10-10T09:55:59.636Z,64.55
2022-10-10T09:58:37.433Z,63.77
2022-10-10T10:01:21.714Z,63.50
2022-10-10T10:04:30.129Z,63.21
2022-10-10T10:07:28.227Z,61.93
2022-10-10T10:10:02.288Z,60.59
2022-10-10T10:12:44.651Z,60.08
2022-10-10T10:15:23.279Z,58.69
2022-10-10T10:18:24.610Z,57.70
2022-10-10T10:21:10.633Z,57.19
2022-10-10T10:23:50.560Z,56.84
2022-10-10T10:26:25.408Z,56.11
2022-10-10T10:28:59.014Z,55.92
2022-10-10T10:31:45.046Z,55.62
2022-10-10T10:34:35.319Z,55.14
2022-10-10T10:37:18.888Z,55.28
2022-10-10T10:40:08.103Z,54.58
2022-10-10T10:42:56.015Z,54.23
2022-10-10T10:45:35.457Z,54.29
2022-10-10T10:48:20.756Z,54.00
2022-10-10T10:50:56.627Z,53.60
2022-10-10T10:53:38.719Z,53.62
2022-10-10T10:56:20.684Z,52.98
2022-10-10T11:02:06.368Z,52.67
2022-10-10T11:05:22.745Z,52.26
2022-10-10T11:07:55.032Z,51.61
2022-10-10T11:10:35.761Z,51.48
2022-10-10T11:13:16.289Z,51.66
2022-10-10T11:16:06.039Z,52.25
2022-10-10T11:18:44.443Z,53.29
2022-10-10T11:21:20.226Z,53.15
2022-10-10T11:23:57.568Z,52.95
2022-10-10T11:26:33.011Z,52.49
2022-10-10T11:29:10.634Z,52.43
2022-10-10T11:31:48.842Z,52.91
2022-10-10T11:34:25.410Z,52.76
2022-10-10T11:37:03.107Z,53.01
2022-10-10T11:39:40.663Z,53.13
2022-10-10T11:42:19.813Z,53.56
2022-10-10T11:44:58.675Z,53.28
2022-10-10T11:47:36.259Z,53.53
2022-10-10T11:50:16.821Z,53.74
2022-10-10T11:52:53.373Z,53.82
2022-10-10T11:55:32.477Z,53.96
2022-10-10T11:58:27.994Z,54.30
2022-10-10T12:01:05.517Z,54.41
2022-10-10T12:03:37.451Z,54.45
2022-10-10T12:06:18.494Z,54.55
2022-10-10T12:08:58.168Z,55.00
2022-10-10T12:11:34.630Z,55.10
2022-10-10T12:14:10.969Z,55.43
2022-10-10T12:16:43.116Z,55.57
2022-10-10T12:19:21.006Z,55.76
2022-10-10T12:21:59.370Z,55.89
2022-10-10T12:24:32.983Z,56.14
2022-10-10T12:27:46.195Z,56.31
2022-10-10T12:30:26.811Z,56.42
2022-10-10T12:32:58.868Z,56.64
2022-10-10T12:35:33.847Z,56.44
2022-10-10T12:38:15.280Z,56.63
2022-10-10T12:41:14.647Z,56.58
2022-10-10T12:44:14.053Z,56.91
2022-10-10T12:46:48.824Z,57.21
2022-10-10T12:49:25.567Z,57.06
2022-10-10T12:52:05.337Z,57.65
2022-10-10T12:54:43.776Z,57.67
2022-10-10T12:57:24.722Z,57.87
2022-10-10T13:00:01.798Z,57.90
2022-10-10T13:02:35.288Z,58.16
2022-10-10T13:05:12.775Z,58.20
2022-10-10T13:07:46.423Z,58.44
2022-10-10T13:10:26.014Z,58.61
2022-10-10T13:13:07.220Z,58.84
2022-10-10T13:15:39.112Z,58.99
2022-10-10T13:18:10.878Z,59.10
2022-10-10T13:20:43.390Z,59.14
2022-10-10T13:23:16.484Z,59.54
2022-10-10T13:25:48.356Z,59.50
2022-10-10T13:28:22.132Z,59.76
2022-10-10T13:30:54.620Z,59.74
2022-10-10T13:33:33.797Z,59.86
2022-10-10T13:36:19.638Z,59.96
2022-10-10T13:38:52.711Z,62.00
2022-10-10T13:41:25.137Z,73.62
2022-10-10T13:43:57.562Z,73.14
2022-10-10T13:46:34.693Z,72.90
2022-10-10T13:49:22.387Z,70.68
2022-10-10T13:52:04.686Z,68.16
2022-10-10T13:54:46.310Z,69.85
2022-10-10T13:57:22.225Z,68.23
2022-10-10T14:00:07.636Z,70.46
2022-10-10T14:02:43.268Z,75.18
2022-10-10T14:05:23.356Z,76.47
2022-10-10T14:07:55.894Z,74.73
2022-10-10T14:10:27.301Z,76.41
2022-10-10T14:13:00.883Z,73.99
2022-10-10T14:15:45.489Z,65.38
2022-10-10T14:18:22.102Z,63.74
2022-10-10T14:20:55.590Z,62.45
2022-10-10T14:23:27.255Z,65.45
2022-10-10T14:26:00.595Z,63.89
2022-10-10T14:28:34.574Z,64.05
2022-10-10T14:31:08.206Z,70.91
2022-10-10T14:33:40.012Z,66.65
2022-10-10T14:36:14.657Z,67.29
2022-10-10T14:38:46.344Z,67.90
2022-10-10T14:41:18.281Z,68.74
2022-10-10T14:43:50.257Z,61.06
2022-10-10T14:46:22.866Z,59.36
2022-10-10T14:48:55.150Z,59.44
2022-10-10T14:51:34.519Z,59.93
2022-10-10T14:54:11.107Z,60.28
2022-10-10T14:57:08.881Z,60.45
2022-10-10T14:59:47.627Z,60.82
2022-10-10T15:02:23.083Z,60.80
2022-10-10T15:04:55.828Z,60.89
2022-10-10T15:07:27.961Z,61.14
2022-10-10T15:12:53.288Z,61.32
2022-10-10T15:15:25.473Z,61.26
2022-10-10T15:18:00.313Z,61.54
2022-10-10T15:20:33.073Z,61.54
2022-10-10T15:23:07.536Z,62.01
2022-10-10T15:25:42.552Z,61.89
2022-10-10T15:28:14.589Z,62.00
2022-10-10T15:30:49.851Z,62.01
2022-10-10T15:33:22.060Z,62.29
2022-10-10T15:36:09.925Z,62.50
2022-10-10T15:38:43.002Z,62.78
2022-10-10T15:41:16.877Z,63.07
2022-10-10T15:43:54.519Z,63.29
2022-10-10T15:46:28.349Z,63.62
2022-10-10T15:49:02.844Z,63.83
2022-10-10T15:51:35.296Z,63.83
2022-10-10T15:54:07.806Z,64.31
2022-10-10T15:56:39.998Z,64.30
2022-10-10T15:59:15.143Z,64.37
2022-10-10T16:01:47.657Z,64.43
2022-10-10T16:04:19.917Z,64.61
2022-10-10T16:06:54.404Z,64.81
2022-10-10T16:09:37.803Z,65.04
2022-10-10T16:12:10.740Z,65.20
2022-10-10T16:14:44.756Z,64.96
2022-10-10T16:17:22.200Z,65.04
2022-10-10T16:19:55.383Z,65.21
2022-10-10T16:22:27.436Z,65.25
2022-10-10T16:27:52.752Z,65.48
2022-10-10T16:30:23.304Z,65.64
2022-10-10T16:32:55.619Z,65.54
2022-10-10T16:35:27.682Z,65.61
2022-10-10T16:38:00.712Z,65.71
2022-10-10T16:40:35.721Z,65.72
2022-10-10T16:43:07.586Z,65.77
2022-10-10T16:45:44.470Z,66.11
2022-10-10T16:48:16.667Z,66.54
2022-10-10T16:50:48.668Z,66.57
2022-10-10T16:53:20.557Z,66.66
2022-10-10T16:55:52.558Z,66.76
2022-10-10T16:58:24.857Z,66.92
2022-10-10T17:00:59.394Z,66.92
2022-10-10T17:03:34.358Z,67.08
2022-10-10T17:06:09.806Z,67.32
2022-10-10T17:08:44.142Z,67.20
2022-10-10T17:11:17.752Z,67.42
2022-10-10T17:13:50.548Z,67.50
2022-10-10T17:16:59.913Z,69.66
2022-10-10T17:19:14.319Z,77.64
2022-10-10T17:21:47.156Z,69.74
2022-10-10T17:24:19.762Z,68.85
2022-10-10T17:26:51.706Z,68.66
2022-10-10T17:29:24.824Z,68.71
2022-10-10T17:31:57.470Z,68.80
2022-10-10T17:34:29.413Z,68.92
2022-10-10T17:37:01.808Z,69.00
2022-10-10T17:39:34.341Z,69.26
2022-10-10T17:42:06.525Z,69.27
2022-10-10T17:44:44.839Z,69.58
2022-10-10T17:47:21.471Z,69.69
2022-10-10T17:49:53.452Z,69.74
2022-10-10T17:52:26.330Z,69.72
2022-10-10T17:54:59.247Z,69.73
2022-10-10T17:57:33.350Z,69.97
2022-10-10T18:00:07.510Z,70.20
2022-10-10T18:02:39.260Z,70.40
2022-10-10T18:05:11.538Z,70.48
2022-10-10T18:07:45.118Z,70.80
2022-10-10T18:10:17.090Z,70.87
2022-10-10T18:12:49.068Z,70.92
2022-10-10T18:15:21.059Z,71.13
2022-10-10T18:17:52.915Z,71.12
2022-10-10T18:20:24.864Z,71.22
2022-10-10T18:23:00.562Z,71.51
2022-10-10T18:25:32.719Z,71.52
2022-10-10T18:28:04.529Z,71.57
2022-10-10T18:30:36.217Z,71.67
2022-10-10T18:33:07.878Z,71.97
2022-10-10T18:35:44.103Z,72.14
2022-10-10T18:38:16.771Z,72.28
2022-10-10T18:40:48.726Z,72.49
2022-10-10T18:43:20.860Z,72.84
2022-10-10T18:45:54.600Z,73.07
2022-10-10T18:48:27.042Z,73.24
2022-10-10T18:51:05.776Z,73.47
2022-10-10T18:53:40.375Z,73.56
2022-10-10T18:56:14.575Z,73.77
2022-10-10T18:58:47.353Z,73.96
2022-10-10T19:01:24.952Z,74.08
2022-10-10T19:03:57.772Z,73.99
2022-10-10T19:06:29.877Z,74.57
2022-10-10T19:09:03.659Z,74.67
2022-10-10T19:11:39.219Z,75.06
2022-10-10T19:14:16.461Z,75.12
2022-10-10T19:16:49.809Z,75.20
2022-10-10T19:19:21.604Z,75.24
2022-10-10T19:21:54.154Z,75.66
2022-10-10T19:24:27.577Z,75.94
2022-10-10T19:27:00.888Z,76.23
2022-10-10T19:29:34.704Z,76.49
2022-10-10T19:32:09.164Z,76.25
2022-10-10T19:34:43.311Z,76.70
2022-10-10T19:37:19.768Z,76.87
2022-10-10T19:39:51.855Z,76.95
2022-10-10T19:42:24.985Z,76.92
2022-10-10T19:44:57.005Z,77.54
2022-10-10T19:47:30.046Z,77.56
2022-10-10T19:50:03.796Z,77.90
2022-10-10T19:52:36.242Z,77.65
2022-10-10T19:55:09.665Z,77.54
2022-10-10T19:57:42.910Z,77.54
2022-10-10T20:00:18.726Z,77.19
2022-10-10T20:02:52.374Z,77.24
2022-10-10T20:05:24.533Z,77.26
2022-10-10T20:07:56.556Z,77.85
2022-10-10T20:10:29.132Z,78.31
2022-10-10T20:13:01.182Z,78.75
2022-10-10T20:15:33.391Z,79.01
2022-10-10T20:18:05.642Z,79.33
2022-10-10T20:20:40.443Z,79.51
2022-10-10T20:23:13.922Z,79.54
2022-10-10T20:25:46.845Z,79.61
2022-10-10T20:28:20.923Z,79.84
2022-10-10T20:30:54.050Z,79.66
2022-10-10T20:33:24.347Z,79.41
2022-10-10T20:35:56.393Z,79.68
2022-10-10T20:38:30.911Z,79.21
2022-10-10T20:41:07.280Z,79.46
2022-10-10T20:43:41.259Z,79.43
2022-10-10T20:46:15.391Z,79.57
2022-10-10T20:48:47.302Z,79.86
2022-10-10T20:51:19.156Z,79.67
2022-10-10T20:53:57.116Z,79.60
2022-10-10T20:56:30.538Z,79.56
2022-10-10T20:59:02.739Z,80.01
2022-10-10T21:01:35.527Z,79.74
2022-10-10T21:04:11.398Z,79.91
2022-10-10T21:06:43.806Z,79.90
2022-10-10T21:09:16.707Z,79.66
2022-10-10T21:11:51.015Z,79.58
2022-10-10T21:14:23.402Z,79.56
2022-10-10T21:16:55.146Z,79.43
2022-10-10T21:19:26.870Z,79.23
2022-10-10T21:21:58.601Z,79.46
2022-10-10T21:24:30.734Z,79.47
2022-10-10T21:27:02.799Z,79.42
2022-10-10T21:29:34.732Z,79.75
2022-10-10T21:32:06.616Z,79.84
2022-10-10T21:34:38.291Z,79.95
2022-10-10T21:37:10.023Z,80.22
2022-10-10T21:39:41.685Z,80.18
2022-10-10T21:42:13.352Z,79.99
2022-10-10T21:44:45.525Z,80.21
2022-10-10T21:47:17.178Z,80.49
2022-10-10T21:49:48.764Z,80.58
2022-10-10T21:52:20.771Z,80.92
2022-10-10T21:54:52.639Z,80.69
2022-10-10T21:57:24.471Z,81.21
2022-10-10T21:59:56.268Z,81.42
2022-10-10T22:02:28.042Z,82.09
2022-10-10T22:05:02.404Z,81.88
2022-10-10T22:07:34.735Z,81.53
2022-10-10T22:10:07.998Z,81.38
2022-10-10T22:12:40.063Z,81.57
2022-10-10T22:15:13.907Z,81.44
2022-10-10T22:17:45.983Z,82.17
2022-10-10T22:20:18.585Z,82.40
2022-10-10T22:22:50.602Z,82.06
2022-10-10T22:25:22.568Z,82.38
2022-10-10T22:27:57.242Z,82.26
2022-10-10T22:30:29.172Z,82.13
2022-10-10T22:33:00.944Z,82.40
2022-10-10T22:35:32.902Z,82.46
2022-10-10T22:38:05.221Z,82.47
2022-10-10T22:40:37.015Z,82.45
2022-10-10T22:43:09.151Z,82.24
2022-10-10T22:45:40.869Z,82.20
2022-10-10T22:48:12.578Z,82.31
2022-10-10T22:50:44.265Z,82.31
2022-10-10T22:53:16.427Z,82.33
2022-10-10T22:55:48.079Z,82.31
2022-10-10T22:58:19.721Z,82.38
2022-10-10T23:00:51.828Z,82.63
2022-10-10T23:03:23.731Z,82.66
2022-10-10T23:05:55.384Z,82.55
2022-10-10T23:08:28.350Z,82.79
2022-10-10T23:11:01.123Z,82.72
2022-10-10T23:13:33.340Z,82.47
2022-10-10T23:16:05.290Z,82.53
2022-10-10T23:18:37.357Z,82.63
2022-10-10T23:21:09.080Z,82.52
2022-10-10T23:23:41.087Z,82.58
2022-10-10T23:26:13.522Z,82.48
2022-10-10T23:28:45.841Z,82.72
2022-10-10T23:31:17.610Z,83.10
2022-10-10T23:33:49.329Z,83.04
2022-10-10T23:36:20.965Z,83.19
2022-10-10T23:38:52.984Z,83.25
2022-10-10T23:41:24.850Z,83.12
2022-10-10T23:43:56.567Z,83.57
2022-10-10T23:46:28.264Z,83.80
2022-10-10T23:48:59.887Z,83.37
2022-10-10T23:51:31.693Z,83.41
2022-10-10T23:54:04.660Z,83.82
2022-10-10T23:56:36.482Z,83.85
2022-10-10T23:59:08.107Z,84.99
